Airfield :
LOGIN :

Register | Disclaimer

   EN    FR    IT 

 










Legend :    VFR   Marginal VFR   IFR   Intensive IFR   Very Intensive IFR
Visi :
Ceiling :
>= 8 km
>= 3000ft
5 to 8 km
1000 to 3000 ft
1500m to 5 km
500 to 1000 ft
800 to 1500m
200 to 500 ft
< 800m
< 200 ft
Symbols :   Thunderstorms  Fog  Heavy snow  Heavy precipitations  Wind > 20 kt
SIGMETs :     Misc.  Thunderstorms  Icing  Turbulence  Mountain Waves  Volcanic Ashes






- Airport Elevation : 407 ft


EGDM - MoD Boscombe Down Amesbury

CURRENT METAR :
  • 011550Z 28015KT 9999 FEW022 BKN050 09/05 Q1026 NOSIG RMK BLU BLU

EXPIRED METARs :
  • 011520Z 28015KT 9999 FEW022 BKN050 09/05 Q1026 NOSIG RMK BLU BLU
  • 011450Z 28015KT 9999 FEW022 BKN050 09/05 Q1025 NOSIG RMK BLU BLU
  • 011420Z 28016KT 9999 BKN045 09/05 Q1025 NOSIG RMK BLU BLU
  • 011350Z 28015KT 9999 FEW025 BKN042 09/05 Q1025 NOSIG RMK BLU BLU
  • 011320Z 29016KT 9999 FEW025 BKN040 09/05 Q1026 NOSIG RMK BLU BLU

TAF TAF EGDM
Valid from the 01 at 15:00 until the 01 at 19:00 UTC


011341Z 0115/0119 28012KT 9999 BKN040
TEMPO 0115/0117 28015G25KT



MET'MAP, your aeronautical weather chart ! - Copyright ORBIFLY December 2007 - Disclaimer

ORBIFLY MET'MAP TEAM :

Programming & Development : Alexandra Zaïnal
Original concept : Baudouin d'Aumeries
Technical & hardware support : Manuel Goepfert
Assistance : Marc-Olivier Méhu




SOURCES & CREDITS :

   NOAA